createdAt,value
2018-05-02T00:01:55.845Z,76.43
2018-05-02T00:04:23.473Z,76.86
2018-05-02T00:06:50.945Z,76.66
2018-05-02T00:09:18.445Z,76.62
2018-05-02T00:11:45.950Z,77.14
2018-05-02T00:14:13.453Z,76.96
2018-05-02T00:16:40.960Z,77.28
2018-05-02T00:19:08.448Z,78.47
2018-05-02T00:21:35.944Z,78.14
2018-05-02T00:24:03.452Z,79.33
2018-05-02T00:26:30.930Z,80.98
2018-05-02T00:28:58.605Z,79.60
2018-05-02T00:31:26.076Z,79.10
2018-05-02T00:33:53.553Z,79.21
2018-05-02T00:36:21.059Z,78.69
2018-05-02T00:38:48.537Z,76.77
2018-05-02T00:41:16.053Z,77.59
2018-05-02T00:43:43.525Z,78.48
2018-05-02T00:46:11.000Z,79.37
2018-05-02T00:48:50.267Z,78.57
2018-05-02T00:51:17.741Z,78.52
2018-05-02T00:53:45.244Z,79.27
2018-05-02T00:56:12.717Z,79.55
2018-05-02T00:58:40.244Z,80.04
2018-05-02T01:01:07.730Z,79.19
2018-05-02T01:03:35.201Z,78.40
2018-05-02T01:06:02.711Z,78.10
2018-05-02T01:08:30.232Z,78.69
2018-05-02T01:10:57.876Z,78.72
2018-05-02T01:13:25.349Z,78.08
2018-05-02T01:15:52.827Z,78.14
2018-05-02T01:18:20.329Z,79.14
2018-05-02T01:20:47.805Z,79.46
2018-05-02T01:23:15.324Z,79.93
2018-05-02T01:25:42.804Z,79.44
2018-05-02T01:28:10.281Z,79.42
2018-05-02T01:30:37.785Z,79.80
2018-05-02T01:33:05.268Z,79.25
2018-05-02T01:35:32.984Z,79.18
2018-05-02T01:38:00.468Z,78.83
2018-05-02T01:40:27.942Z,78.89
2018-05-02T01:42:55.453Z,78.50
2018-05-02T01:45:22.935Z,77.98
2018-05-02T01:47:50.448Z,78.23
2018-05-02T01:50:17.930Z,78.02
2018-05-02T01:52:45.409Z,77.96
2018-05-02T01:55:12.917Z,78.26
2018-05-02T01:57:40.398Z,78.40
2018-05-02T02:00:08.104Z,78.60
2018-05-02T02:02:35.585Z,78.98
2018-05-02T02:05:03.065Z,77.89
2018-05-02T02:07:30.568Z,78.64
2018-05-02T02:09:58.048Z,78.95
2018-05-02T02:12:25.581Z,78.85
2018-05-02T02:14:53.053Z,78.89
2018-05-02T02:17:20.537Z,78.57
2018-05-02T02:19:48.070Z,78.56
2018-05-02T02:22:15.541Z,78.87
2018-05-02T02:24:43.332Z,79.21
2018-05-02T02:27:10.812Z,79.37
2018-05-02T02:29:38.291Z,80.56
2018-05-02T02:32:05.831Z,79.39
2018-05-02T02:34:33.309Z,79.94
2018-05-02T02:37:01.265Z,80.53
2018-05-02T02:39:28.787Z,80.74
2018-05-02T02:41:56.261Z,81.50
2018-05-02T02:44:23.791Z,80.63
2018-05-02T02:46:51.272Z,80.83
2018-05-02T02:49:18.926Z,80.43
2018-05-02T02:51:46.404Z,79.77
2018-05-02T02:54:13.896Z,80.75
2018-05-02T02:56:41.413Z,80.56
2018-05-02T02:59:08.889Z,81.05
2018-05-02T03:01:36.777Z,80.98
2018-05-02T03:04:04.253Z,81.15
2018-05-02T03:06:31.740Z,81.78
2018-05-02T03:08:59.278Z,80.69
2018-05-02T03:11:26.764Z,81.14
2018-05-02T03:13:54.729Z,81.11
2018-05-02T03:16:22.216Z,81.67
2018-05-02T03:18:49.709Z,80.43
2018-05-02T03:21:17.220Z,79.98
2018-05-02T03:23:44.713Z,80.05
2018-05-02T03:26:12.400Z,80.02
2018-05-02T03:28:39.873Z,81.53
2018-05-02T03:31:07.348Z,82.05
2018-05-02T03:33:34.865Z,81.58
2018-05-02T03:36:02.355Z,81.11
2018-05-02T03:38:29.887Z,80.81
2018-05-02T03:40:57.369Z,80.71
2018-05-02T03:43:24.851Z,80.96
2018-05-02T03:45:52.349Z,80.47
2018-05-02T03:48:19.829Z,80.52
2018-05-02T03:50:47.362Z,80.16
2018-05-02T03:53:14.852Z,80.26
2018-05-02T03:55:42.348Z,80.20
2018-05-02T03:58:09.849Z,79.44
2018-05-02T04:00:49.370Z,79.82
2018-05-02T04:03:28.760Z,80.63
2018-05-02T04:06:09.245Z,80.20
2018-05-02T04:08:36.784Z,79.24
2018-05-02T04:11:05.236Z,79.36
2018-05-02T04:13:32.747Z,80.61
2018-05-02T04:16:00.259Z,80.97
2018-05-02T04:18:27.965Z,81.56
2018-05-02T04:20:55.447Z,80.76
2018-05-02T04:23:22.933Z,80.59
2018-05-02T04:25:50.449Z,80.43
2018-05-02T04:28:17.926Z,80.56
2018-05-02T04:30:45.474Z,80.87
2018-05-02T04:33:12.949Z,80.92
2018-05-02T04:35:40.421Z,81.26
2018-05-02T04:38:07.921Z,81.86
2018-05-02T04:40:35.398Z,82.03
2018-05-02T04:43:03.177Z,82.05
2018-05-02T04:45:30.656Z,81.45
2018-05-02T04:47:58.136Z,82.15
2018-05-02T04:50:25.645Z,82.34
2018-05-02T04:52:53.125Z,82.13
2018-05-02T04:55:20.898Z,81.73
2018-05-02T04:57:48.333Z,81.93
2018-05-02T05:00:15.813Z,82.05
2018-05-02T05:02:43.323Z,81.52
2018-05-02T05:05:10.833Z,81.70
2018-05-02T05:07:38.356Z,81.76
2018-05-02T05:10:05.833Z,81.71
2018-05-02T05:12:33.316Z,81.60
2018-05-02T05:15:00.814Z,81.45
2018-05-02T05:17:28.285Z,80.85
2018-05-02T05:19:56.171Z,80.81
2018-05-02T05:22:23.669Z,81.05
2018-05-02T05:24:51.153Z,80.63
2018-05-02T05:27:18.649Z,80.72
2018-05-02T05:29:46.125Z,80.39
2018-05-02T05:32:13.636Z,81.62
2018-05-02T05:34:41.129Z,80.98
2018-05-02T05:37:08.605Z,80.64
2018-05-02T05:39:36.105Z,80.20
2018-05-02T05:42:03.607Z,80.03
2018-05-02T05:44:31.361Z,79.96
2018-05-02T05:46:58.849Z,79.39
2018-05-02T05:49:26.324Z,79.28
2018-05-02T05:51:53.836Z,78.13
2018-05-02T05:54:21.430Z,77.41
2018-05-02T05:56:49.012Z,75.17
2018-05-02T05:59:16.498Z,74.79
2018-05-02T06:01:43.977Z,74.32
2018-05-02T06:04:11.473Z,73.69
2018-05-02T06:06:38.946Z,73.78
2018-05-02T06:09:06.619Z,73.41
2018-05-02T06:11:34.102Z,72.80
2018-05-02T06:14:01.590Z,73.21
2018-05-02T06:16:29.093Z,73.19
2018-05-02T06:18:56.575Z,72.97
2018-05-02T06:21:24.217Z,71.53
2018-05-02T06:23:51.706Z,70.76
2018-05-02T06:26:19.427Z,70.37
2018-05-02T06:28:46.925Z,71.46
2018-05-02T06:31:14.398Z,72.87
2018-05-02T06:33:41.908Z,73.23
2018-05-02T06:36:09.405Z,73.36
2018-05-02T06:38:36.881Z,71.14
2018-05-02T06:41:04.381Z,68.57
2018-05-02T06:43:31.916Z,70.34
2018-05-02T06:45:59.529Z,69.43
2018-05-02T06:48:27.036Z,69.65
2018-05-02T06:50:54.597Z,69.61
2018-05-02T06:53:22.097Z,69.66
2018-05-02T06:55:49.585Z,70.59
2018-05-02T06:58:17.288Z,69.63
2018-05-02T07:00:45.014Z,67.91
2018-05-02T07:03:12.432Z,68.78
2018-05-02T07:05:39.932Z,68.41
2018-05-02T07:08:07.408Z,68.22
2018-05-02T07:10:35.041Z,66.50
2018-05-02T07:13:02.529Z,68.26
2018-05-02T07:15:30.001Z,68.40
2018-05-02T07:17:57.501Z,67.01
2018-05-02T07:20:25.021Z,66.85
2018-05-02T07:22:52.696Z,68.68
2018-05-02T07:25:20.189Z,68.28
2018-05-02T07:27:47.673Z,68.23
2018-05-02T07:30:15.197Z,65.57
2018-05-02T07:32:42.772Z,65.27
2018-05-02T07:35:10.352Z,65.43
2018-05-02T07:37:40.109Z,65.19
2018-05-02T07:40:07.597Z,63.63
2018-05-02T07:42:35.129Z,64.01
2018-05-02T07:45:02.621Z,64.15
2018-05-02T07:47:30.377Z,63.38
2018-05-02T07:49:57.861Z,63.12
2018-05-02T07:52:25.336Z,64.50
2018-05-02T07:54:52.842Z,64.42
2018-05-02T07:57:20.333Z,64.68
2018-05-02T07:59:47.909Z,64.34
2018-05-02T08:02:15.409Z,63.62
2018-05-02T08:04:42.917Z,63.83
2018-05-02T08:07:10.425Z,63.73
2018-05-02T08:09:37.921Z,62.63
2018-05-02T08:12:05.434Z,62.99
2018-05-02T08:14:32.921Z,63.01
2018-05-02T08:17:00.455Z,62.16
2018-05-02T08:19:27.981Z,61.68
2018-05-02T08:21:55.466Z,59.90
2018-05-02T08:24:23.231Z,60.76
2018-05-02T08:26:50.747Z,60.97
2018-05-02T08:29:18.224Z,60.74
2018-05-02T08:31:45.733Z,60.71
2018-05-02T08:34:13.258Z,60.81
2018-05-02T08:36:40.781Z,59.87
2018-05-02T08:39:08.265Z,59.96
2018-05-02T08:41:35.785Z,60.17
2018-05-02T08:44:03.292Z,60.05
2018-05-02T08:46:30.777Z,59.82
2018-05-02T08:48:58.538Z,59.95
2018-05-02T08:51:26.041Z,60.45
2018-05-02T08:53:53.533Z,59.86
2018-05-02T08:56:21.041Z,59.11
2018-05-02T08:58:48.558Z,57.87
2018-05-02T09:01:16.213Z,56.57
2018-05-02T09:03:43.716Z,58.33
2018-05-02T09:06:11.233Z,58.08
2018-05-02T09:08:38.733Z,57.84
2018-05-02T09:11:06.209Z,56.59
2018-05-02T09:13:34.169Z,56.90
2018-05-02T09:16:01.677Z,56.62
2018-05-02T09:18:29.157Z,56.49
2018-05-02T09:20:56.660Z,54.63
2018-05-02T09:23:24.162Z,52.41
2018-05-02T09:25:52.038Z,51.43
2018-05-02T09:28:19.522Z,51.38
2018-05-02T09:30:47.010Z,50.36
2018-05-02T09:33:14.509Z,50.23
2018-05-02T09:35:42.086Z,50.75
2018-05-02T09:38:09.677Z,48.32
2018-05-02T09:40:37.163Z,47.97
2018-05-02T09:43:04.645Z,48.30
2018-05-02T09:45:32.149Z,48.54
2018-05-02T09:47:59.633Z,48.76
2018-05-02T09:50:27.544Z,48.45
2018-05-02T09:52:55.024Z,48.07
2018-05-02T09:55:22.523Z,48.46
2018-05-02T09:57:50.033Z,46.47
2018-05-02T10:00:17.533Z,47.57
2018-05-02T10:02:45.497Z,47.64
2018-05-02T10:05:12.984Z,47.20
2018-05-02T10:07:40.476Z,47.66
2018-05-02T10:10:07.980Z,46.93
2018-05-02T10:12:35.467Z,46.24
2018-05-02T10:15:03.189Z,46.32
2018-05-02T10:17:30.669Z,46.05
2018-05-02T10:19:58.149Z,45.35
2018-05-02T10:22:25.669Z,45.80
2018-05-02T10:24:53.178Z,43.86
2018-05-02T10:27:20.700Z,44.13
2018-05-02T10:29:48.185Z,43.88
2018-05-02T10:32:15.669Z,44.18
2018-05-02T10:34:43.176Z,44.39
2018-05-02T10:37:10.668Z,42.56
2018-05-02T10:39:38.473Z,42.21
2018-05-02T10:42:05.961Z,43.47
2018-05-02T10:44:33.457Z,44.01
2018-05-02T10:47:00.961Z,43.66
2018-05-02T10:49:28.456Z,43.44
2018-05-02T10:51:56.238Z,43.65
2018-05-02T10:54:23.733Z,42.17
2018-05-02T10:56:51.221Z,41.70
2018-05-02T10:59:18.744Z,41.50
2018-05-02T11:01:46.385Z,42.10
2018-05-02T11:04:14.164Z,41.16
2018-05-02T11:06:41.652Z,41.21
2018-05-02T11:09:09.133Z,41.25
2018-05-02T11:11:36.645Z,42.24
2018-05-02T11:14:04.129Z,42.06
2018-05-02T11:16:31.645Z,41.24
2018-05-02T11:18:59.175Z,40.09
2018-05-02T11:21:26.673Z,39.92
2018-05-02T11:23:54.246Z,39.17
2018-05-02T11:26:21.697Z,40.43
2018-05-02T11:28:49.210Z,39.43
2018-05-02T11:31:16.700Z,39.04
2018-05-02T11:33:44.182Z,38.79
2018-05-02T11:36:11.681Z,38.38
2018-05-02T11:38:39.169Z,39.31
2018-05-02T11:41:06.715Z,39.36
2018-05-02T11:43:34.208Z,38.26
2018-05-02T11:46:01.688Z,39.11
2018-05-02T11:48:29.213Z,39.02
2018-05-02T11:50:56.685Z,38.42
2018-05-02T11:53:24.497Z,38.96
2018-05-02T11:55:51.973Z,38.51
2018-05-02T11:58:19.456Z,39.05
2018-05-02T12:00:46.960Z,37.68
2018-05-02T12:03:14.794Z,37.84
2018-05-02T12:05:42.157Z,37.84
2018-05-02T12:08:09.641Z,38.32
2018-05-02T12:10:37.122Z,37.69
2018-05-02T12:13:04.643Z,37.46
2018-05-02T12:15:32.912Z,37.25
2018-05-02T12:18:00.530Z,37.97
2018-05-02T12:20:28.015Z,37.29
2018-05-02T12:22:55.494Z,37.52
2018-05-02T12:25:23.014Z,36.75
2018-05-02T12:27:50.580Z,36.68
2018-05-02T12:30:18.214Z,36.71
2018-05-02T12:32:45.700Z,36.29
2018-05-02T12:35:13.177Z,36.74
2018-05-02T12:37:40.682Z,36.43
2018-05-02T12:40:08.195Z,36.36
2018-05-02T12:42:35.712Z,36.46
2018-05-02T12:45:03.197Z,36.77
2018-05-02T12:47:30.704Z,37.92
2018-05-02T12:49:58.205Z,36.63
2018-05-02T12:52:25.684Z,36.39
2018-05-02T12:54:53.397Z,36.64
2018-05-02T12:57:20.873Z,35.46
2018-05-02T12:59:48.373Z,35.98
2018-05-02T13:02:16.125Z,35.30
2018-05-02T13:04:43.605Z,36.53
2018-05-02T13:07:11.252Z,35.78
2018-05-02T13:09:38.737Z,35.48
2018-05-02T13:12:06.220Z,35.71
2018-05-02T13:14:33.733Z,34.70
2018-05-02T13:17:01.212Z,33.77
2018-05-02T13:19:28.720Z,33.95
2018-05-02T13:21:56.213Z,34.56
2018-05-02T13:24:23.697Z,35.21
2018-05-02T13:26:51.192Z,35.62
2018-05-02T13:29:18.669Z,35.89
2018-05-02T13:31:46.185Z,35.06
2018-05-02T13:34:13.665Z,35.61
2018-05-02T13:36:41.170Z,35.61
2018-05-02T13:39:08.690Z,35.30
2018-05-02T13:41:36.204Z,33.45
2018-05-02T13:44:03.740Z,35.25
2018-05-02T13:46:31.221Z,36.17
2018-05-02T13:48:58.700Z,36.31
2018-05-02T13:51:26.206Z,35.41
2018-05-02T13:53:53.711Z,36.22
2018-05-02T13:56:21.373Z,35.41
2018-05-02T13:58:48.873Z,35.75
2018-05-02T14:01:16.385Z,36.33
2018-05-02T14:03:43.897Z,36.09
2018-05-02T14:06:11.385Z,35.62
2018-05-02T14:08:38.905Z,35.78
2018-05-02T14:11:06.380Z,35.41
2018-05-02T14:13:33.857Z,35.27
2018-05-02T14:16:01.386Z,35.26
2018-05-02T14:18:28.881Z,35.07
2018-05-02T14:20:56.785Z,35.19
2018-05-02T14:23:24.260Z,35.73
2018-05-02T14:25:51.738Z,34.98
2018-05-02T14:28:19.237Z,35.48
2018-05-02T14:30:46.708Z,34.90
2018-05-02T14:33:14.335Z,34.79
2018-05-02T14:35:41.827Z,35.41
2018-05-02T14:38:09.317Z,34.63
2018-05-02T14:40:36.828Z,35.03
2018-05-02T14:43:04.305Z,34.35
2018-05-02T14:45:31.834Z,34.00
2018-05-02T14:47:59.311Z,33.80
2018-05-02T14:50:26.799Z,34.05
2018-05-02T14:52:54.316Z,34.17
2018-05-02T14:55:21.847Z,33.51
2018-05-02T14:57:49.561Z,33.13
2018-05-02T15:00:17.712Z,33.06
2018-05-02T15:02:45.196Z,32.97
2018-05-02T15:05:12.698Z,33.54
2018-05-02T15:07:40.187Z,34.22
2018-05-02T15:10:07.924Z,33.93
2018-05-02T15:12:35.412Z,33.49
2018-05-02T15:15:02.893Z,33.62
2018-05-02T15:17:30.401Z,33.79
2018-05-02T15:19:57.910Z,33.28
2018-05-02T15:22:25.432Z,34.03
2018-05-02T15:24:52.917Z,34.74
2018-05-02T15:27:20.417Z,34.70
2018-05-02T15:29:47.921Z,34.39
2018-05-02T15:32:15.409Z,35.33
2018-05-02T15:34:42.936Z,34.87
2018-05-02T15:37:10.413Z,34.74
2018-05-02T15:39:37.913Z,34.57
2018-05-02T15:42:05.453Z,34.70
2018-05-02T15:44:32.924Z,35.03
2018-05-02T15:47:00.450Z,35.42
2018-05-02T15:49:27.925Z,34.83
2018-05-02T15:51:55.417Z,34.89
2018-05-02T15:54:22.939Z,35.08
2018-05-02T15:56:50.420Z,35.49
2018-05-02T15:59:18.253Z,35.52
2018-05-02T16:01:45.758Z,35.62
2018-05-02T16:04:13.233Z,35.75
2018-05-02T16:06:40.732Z,35.63
2018-05-02T16:09:08.229Z,36.28
2018-05-02T16:11:36.093Z,35.91
2018-05-02T16:14:03.577Z,35.69
2018-05-02T16:16:31.097Z,36.15
2018-05-02T16:18:58.656Z,36.04
2018-05-02T16:21:26.081Z,36.26
2018-05-02T16:23:53.759Z,36.76
2018-05-02T16:26:21.248Z,36.67
2018-05-02T16:28:48.757Z,37.19
2018-05-02T16:31:16.263Z,36.81
2018-05-02T16:33:43.769Z,37.49
2018-05-02T16:36:11.301Z,36.31
2018-05-02T16:38:38.780Z,36.19
2018-05-02T16:41:06.261Z,36.35
2018-05-02T16:43:33.824Z,36.47
2018-05-02T16:46:01.302Z,36.48
2018-05-02T16:48:29.049Z,37.08
2018-05-02T16:50:56.532Z,36.55
2018-05-02T16:53:24.011Z,36.46
2018-05-02T16:55:51.517Z,36.11
2018-05-02T16:58:18.992Z,36.76
2018-05-02T17:00:46.722Z,37.12
2018-05-02T17:03:14.209Z,36.58
2018-05-02T17:05:41.766Z,37.95
2018-05-02T17:08:09.268Z,36.72
2018-05-02T17:10:36.792Z,37.85
2018-05-02T17:13:04.329Z,36.66
2018-05-02T17:15:31.808Z,37.36
2018-05-02T17:17:59.292Z,37.93
2018-05-02T17:20:26.796Z,37.59
2018-05-02T17:22:54.277Z,39.34
2018-05-02T17:25:21.793Z,38.40
2018-05-02T17:27:49.293Z,39.71
2018-05-02T17:30:16.772Z,39.06
2018-05-02T17:32:44.302Z,40.37
2018-05-02T17:35:11.806Z,41.29
2018-05-02T17:37:39.361Z,41.11
2018-05-02T17:40:06.846Z,38.90
2018-05-02T17:42:34.333Z,39.87
2018-05-02T17:45:01.881Z,41.20
2018-05-02T17:47:29.361Z,41.56
2018-05-02T17:49:57.304Z,42.09
2018-05-02T17:52:24.804Z,42.97
2018-05-02T17:54:52.289Z,44.67
2018-05-02T17:57:19.809Z,44.56
2018-05-02T17:59:47.326Z,44.93
2018-05-02T18:02:15.085Z,46.63
2018-05-02T18:04:42.562Z,46.26
2018-05-02T18:07:10.058Z,48.78
2018-05-02T18:09:37.611Z,50.00
2018-05-02T18:12:05.098Z,50.53
2018-05-02T18:14:32.838Z,50.38
2018-05-02T18:17:00.335Z,51.25
2018-05-02T18:19:27.823Z,51.85
2018-05-02T18:21:55.445Z,52.65
2018-05-02T18:24:23.663Z,53.81
2018-05-02T18:26:51.199Z,55.06
2018-05-02T18:29:18.797Z,54.67
2018-05-02T18:31:46.387Z,54.11
2018-05-02T18:34:14.465Z,54.55
2018-05-02T18:36:42.657Z,54.70
2018-05-02T18:39:11.372Z,53.27
2018-05-02T18:41:40.979Z,52.73
2018-05-02T18:44:08.851Z,52.82
2018-05-02T18:46:37.037Z,53.71
2018-05-02T18:49:05.339Z,54.20
2018-05-02T18:51:34.140Z,54.29
2018-05-02T18:54:02.375Z,53.42
2018-05-02T18:56:31.273Z,54.65
2018-05-02T18:58:59.651Z,55.07
2018-05-02T19:01:28.632Z,55.34
2018-05-02T19:03:57.253Z,56.35
2018-05-02T19:06:26.211Z,55.80
2018-05-02T19:08:54.697Z,55.31
2018-05-02T19:11:23.114Z,56.28
2018-05-02T19:13:57.074Z,56.83
2018-05-02T19:16:25.679Z,56.60
2018-05-02T19:18:59.375Z,56.45
2018-05-02T19:21:27.905Z,57.53
2018-05-02T19:23:56.411Z,58.18
2018-05-02T19:26:30.487Z,57.67
2018-05-02T19:28:59.561Z,56.23
2018-05-02T19:31:33.286Z,58.36
2018-05-02T19:34:01.766Z,58.86
2018-05-02T19:36:30.192Z,58.77
2018-05-02T19:38:58.662Z,58.87
2018-05-02T19:41:32.298Z,58.38
2018-05-02T19:44:03.687Z,58.38
2018-05-02T19:46:32.434Z,59.43
2018-05-02T19:49:01.209Z,60.02
2018-05-02T19:51:35.419Z,60.24
2018-05-02T19:54:05.070Z,59.71
2018-05-02T19:56:33.665Z,59.84
2018-05-02T19:59:02.102Z,60.13
2018-05-02T20:01:35.962Z,59.87
2018-05-02T20:04:05.135Z,61.57
2018-05-02T20:06:34.815Z,61.49
2018-05-02T20:09:08.755Z,61.67
2018-05-02T20:11:42.951Z,62.17
2018-05-02T20:14:11.350Z,63.03
2018-05-02T20:16:39.640Z,63.11
2018-05-02T20:19:08.099Z,63.60
2018-05-02T20:21:37.203Z,63.50
2018-05-02T20:24:05.533Z,63.83
2018-05-02T20:26:33.802Z,64.16
2018-05-02T20:29:01.822Z,63.99
2018-05-02T20:31:29.999Z,63.63
2018-05-02T20:33:58.228Z,64.12
2018-05-02T20:36:26.421Z,63.56
2018-05-02T20:38:54.347Z,64.63
2018-05-02T20:41:21.884Z,65.01
2018-05-02T20:43:49.405Z,64.27
2018-05-02T20:46:16.934Z,64.90
2018-05-02T20:48:44.608Z,66.28
2018-05-02T20:51:12.094Z,66.46
2018-05-02T20:53:39.590Z,66.55
2018-05-02T20:56:07.140Z,66.21
2018-05-02T20:58:34.629Z,66.38
2018-05-02T21:01:02.378Z,66.04
2018-05-02T21:03:29.865Z,66.77
2018-05-02T21:05:57.347Z,65.10
2018-05-02T21:08:24.896Z,65.67
2018-05-02T21:10:52.397Z,66.60
2018-05-02T21:13:20.229Z,66.80
2018-05-02T21:15:47.706Z,67.17
2018-05-02T21:18:15.185Z,68.49
2018-05-02T21:20:42.693Z,68.42
2018-05-02T21:23:10.181Z,68.05
2018-05-02T21:25:37.977Z,68.25
2018-05-02T21:28:05.457Z,68.37
2018-05-02T21:30:32.952Z,68.73
2018-05-02T21:33:00.457Z,68.72
2018-05-02T21:35:27.941Z,68.90
2018-05-02T21:37:55.632Z,69.66
2018-05-02T21:40:23.108Z,70.02
2018-05-02T21:42:50.583Z,69.38
2018-05-02T21:45:18.085Z,68.78
2018-05-02T21:47:45.609Z,69.57
2018-05-02T21:50:14.034Z,69.60
2018-05-02T21:52:41.519Z,69.67
2018-05-02T21:55:09.160Z,70.11
2018-05-02T21:57:36.649Z,70.00
2018-05-02T22:00:04.125Z,69.59
2018-05-02T22:02:31.624Z,70.38
2018-05-02T22:04:59.160Z,70.08
2018-05-02T22:07:26.905Z,70.10
2018-05-02T22:09:54.401Z,69.29
2018-05-02T22:12:21.882Z,69.63
2018-05-02T22:14:49.432Z,70.01
2018-05-02T22:17:16.933Z,69.98
2018-05-02T22:19:44.477Z,69.66
2018-05-02T22:22:11.949Z,69.66
2018-05-02T22:24:39.433Z,69.92
2018-05-02T22:27:06.937Z,70.32
2018-05-02T22:29:34.417Z,70.52
2018-05-02T22:32:02.065Z,70.68
2018-05-02T22:34:29.541Z,70.93
2018-05-02T22:36:57.033Z,71.75
2018-05-02T22:39:24.532Z,70.65
2018-05-02T22:41:52.012Z,71.39
2018-05-02T22:44:19.672Z,71.71
2018-05-02T22:46:47.160Z,71.67
2018-05-02T22:49:14.639Z,71.46
2018-05-02T22:51:42.152Z,71.70
2018-05-02T22:54:09.625Z,72.59
2018-05-02T22:56:37.142Z,72.52
2018-05-02T22:59:04.633Z,72.84
2018-05-02T23:01:32.109Z,72.42
2018-05-02T23:03:59.641Z,73.34
2018-05-02T23:06:27.112Z,72.86
2018-05-02T23:08:54.637Z,72.79
2018-05-02T23:11:22.113Z,73.57
2018-05-02T23:13:49.601Z,73.44
2018-05-02T23:16:17.125Z,73.16
2018-05-02T23:18:44.597Z,73.43
2018-05-02T23:21:12.115Z,72.59
2018-05-02T23:23:39.605Z,73.22
2018-05-02T23:26:07.081Z,74.00
2018-05-02T23:28:34.580Z,74.59
2018-05-02T23:31:02.052Z,74.62
2018-05-02T23:33:29.888Z,73.98
2018-05-02T23:35:57.369Z,73.50
2018-05-02T23:38:24.841Z,73.68
2018-05-02T23:40:52.340Z,73.58
2018-05-02T23:43:19.828Z,74.43
2018-05-02T23:45:47.556Z,74.97
2018-05-02T23:48:15.033Z,74.52
2018-05-02T23:50:42.521Z,75.01
2018-05-02T23:53:10.017Z,75.05
2018-05-02T23:55:37.497Z,74.62
2018-05-02T23:58:05.221Z,74.28
